Aktuální počasí v Česku a ve světě - METAR

Seznam meteostanic umístěných nejčasteji na letišti v ČR a ve světě

Vyhledat místa podle abecedy:
A B C D E F G H I J K L M N O P Q R S T U V W X Y Z

Filtrovat:

ID stanice:
a/nebo
Název místa (fulltext):
 
Místo (ID)Naposledy načteno 
Brussels (EBBR) 01.12.2020 04:50 UTC Zobrazit METAR
EBBR 010450Z 28010KT 7000 -SHRA FEW005 BKN011 06/05 Q1015 TEMPO 4000 SHRA SCT011 BKN025
Bucharest (LRBS) 01.12.2020 05:00 UTC Zobrazit METAR
LRBS 010500Z 24003KT 8000 FEW003 00/M00 Q1026 R07/29//95 NOSIG
Budapest (LHBP) 01.12.2020 05:00 UTC Zobrazit METAR
LHBP 010500Z 00000KT 4200 BR BKN033 M03/M04 Q1024 NOSIG
Buenos Aires (SABE) 01.12.2020 05:00 UTC Zobrazit METAR
SABE 010500Z 11014KT CAVOK 18/12 Q1017 NOSIG
Bujumbura (HBBA) 28.11.2020 17:00 UTC Zobrazit METAR
HBBA 281700Z 09004KT 9999 FEW025 BKN100 22/20 Q1012 NOSIG
Burgas (LBBG) 01.12.2020 05:00 UTC Zobrazit METAR
LBBG 010500Z 35012KT 310V020 9999 FEW019 03/M01 Q1023 NOSIG
Bydgoszcz (EPBY) 01.12.2020 05:00 UTC Zobrazit METAR
EPBY 010500Z 16009KT 5000 BR BKN006 M01/M02 Q1018
Cairo (HECA) 01.12.2020 05:00 UTC Zobrazit METAR
HECA 010500Z 21009KT 6000 NSC 15/05 Q1013 NOSIG
Canberra (YSCB) 30.11.2020 21:00 UTC Zobrazit METAR
YSCB 302100Z AUTO 16002KT 9999 // BKN012 17/12 Q1013
Caracas (SVMP) Zatím nenačteno  
Cayenne (SOCA) 01.12.2020 05:00 UTC Zobrazit METAR
SOCA 010500Z AUTO 00000KT 9999 FEW025 SCT150 24/24 Q1011 TEMPO 4000 SHRA SCT015TCU
Charlotte Amalie (TIST) 01.12.2020 04:53 UTC Zobrazit METAR
TIST 010453Z AUTO 09009KT 10SM CLR 25/19 A2996 RMK AO2 SLP146 T02500194
Chisinau (LUKK) 01.12.2020 05:00 UTC Zobrazit METAR
LUKK 010500Z 35012KT 9999 FEW017 OVC047 M01/M02 Q1025 R08/190095 NOSIG
Colombo (VCBI) 01.12.2020 05:10 UTC Zobrazit METAR
VCBI 010510Z 02011KT 350V050 9999 BKN018 30/23 Q1012 NOSIG
Conakry (GUCY) 28.11.2020 12:00 UTC Zobrazit METAR
GUCY 281200Z 18008KT 9999 FEW015 31/26 Q1011 NOSIG
Constanta (LRCK) 01.12.2020 05:00 UTC Zobrazit METAR
LRCK 010500Z 33012KT 5000 -SN BR BKN016 M00/M00 Q1023 R36/29//95 NOSIG
Constantine (DABC) 01.12.2020 04:50 UTC Zobrazit METAR
DABC 010450Z VRB01KT 2000 FEW026 04/04 Q1022
Copenhagen (EKCH) 01.12.2020 04:50 UTC Zobrazit METAR
EKCH 010450Z 17007KT 8000 -RA BKN012 04/03 Q1013 TEMPO BKN015
Cork (EICK) 01.12.2020 05:00 UTC Zobrazit METAR
EICK 010500Z 31006KT 2000 BR FEW001 BKN002 BKN008 09/09 Q1029 TEMPO 0500 BKN001
Cotonou (DBBB) 01.12.2020 05:00 UTC Zobrazit METAR
DBBB 010500Z 32004KT 9999 SCT012 26/25 Q1010 NOSIG
Curacao Island (TNCC) 01.12.2020 05:00 UTC Zobrazit METAR
TNCC 010500Z 12007KT 9999 SCT017 27/24 Q1011 NOSIG
Dakar (GOOY) 01.12.2020 03:00 UTC Zobrazit METAR
GOOY 010300Z 03010KT CAVOK 25/20 Q1013
Damascus (OSDI) 01.12.2020 05:00 UTC Zobrazit METAR
OSDI 010500Z 07004KT CAVOK 06/04 Q1017
Debrecen (LHDC) 01.12.2020 04:45 UTC Zobrazit METAR
LHDC 010445Z AUTO VRB01KT 3500 BR BKN043 M01/M01 Q1025
Delhi (VIDP) 30.11.2020 15:00 UTC Zobrazit METAR
VIDP 301500Z 00000KT 2100 HZ NSC 16/08 Q1017 NOSIG
Dhaka (VGZR) Zatím nenačteno  
Diego Garcia (FJDG) 01.12.2020 04:55 UTC Zobrazit METAR
FJDG 010455Z 29008KT 9999 FEW020 FEW080 BKN250 30/26 A2988 RMK SLP115 T03040257
Djibouti (HDAM) 27.11.2020 16:00 UTC Zobrazit METAR
HDAM 271600Z 10008KT 9999 FEW020 27/22 Q1015
Dnipropetrovs'k (UKDD) 12.08.2013 14:00 UTC Zobrazit METAR
UKDD 121400Z CAVOK 33/13 Q1012 08090070 NOSIG
Dodoma (HTDO) 30.11.2020 04:00 UTC Zobrazit METAR
HTDO 300400Z 00000KT 9999 FEW021 SCT080 21/17 Q1018 NOSIG
Doha (OTBD) 01.12.2020 05:00 UTC Zobrazit METAR
OTBD 010500Z AUTO 33007KT CAVOK 25/20 Q1018 NOSIG
Dortmund (EDLW) 01.12.2020 04:50 UTC Zobrazit METAR
EDLW 010450Z 21009KT 7000 -DZ OVC009 04/03 Q1011
Dresden (EDDC) 01.12.2020 04:50 UTC Zobrazit METAR
EDDC 010450Z 15008KT 8000 -SN BKN023 M00/M02 Q1014 TEMPO 4500 -SN BKN014
Dublin (EIDW) 01.12.2020 05:00 UTC Zobrazit METAR
EIDW 010500Z 28007KT 9999 FEW018 BKN048 BKN070 05/04 Q1028 NOSIG
Dubrovnik (LDDU) 01.12.2020 05:00 UTC Zobrazit METAR
LDDU 010500Z 06009KT 010V110 CAVOK 07/M06 Q1017 NOSIG
Dushanbe (UTDD) Zatím nenačteno  
Dusseldorf (EDDL) 01.12.2020 04:50 UTC Zobrazit METAR
EDDL 010450Z 16006KT 6000 -RADZ OVC006 05/04 Q1012 NOSIG
Dzaoudzi (FMCZ) 01.12.2020 05:00 UTC Zobrazit METAR
FMCZ 010500Z AUTO 01009KT 9999 FEW020 28/23 Q1012 NOSIG
Edinburgh (EGPH) 01.12.2020 04:50 UTC Zobrazit METAR
EGPH 010450Z VRB03KT CAVOK 01/00 Q1026
Eindhoven (EHEH) 01.12.2020 04:55 UTC Zobrazit METAR
EHEH 010455Z AUTO 25007KT 9999 BKN015 BKN021 06/06 Q1012 WHT
Entebbe (HUEN) 01.12.2020 05:00 UTC Zobrazit METAR
HUEN 010500Z 00000KT 9999 FEW018 21/19 Q1018
Esbjerg (EKEB) 01.12.2020 04:50 UTC Zobrazit METAR
EKEB 010450Z AUTO 06004KT 030V090 9000 OVC003/// 03/03 Q1011
Faro (LPFR) 01.12.2020 05:00 UTC Zobrazit METAR
LPFR 010500Z 03007KT CAVOK 14/12 Q1020
Florence (LIRQ) 01.12.2020 04:50 UTC Zobrazit METAR
LIRQ 010450Z VRB02KT 9999 BKN065 03/01 Q1018
Foggia, Gino Lisa (LIBF) 30.11.2020 14:50 UTC Zobrazit METAR
LIBF 301450Z 33012KT CAVOK 11/06 Q1021
Fort de France (TFFF) 01.12.2020 05:00 UTC Zobrazit METAR
TFFF 010500Z AUTO 09007KT 9999 FEW025 26/22 Q1013
Frankfurt/ Main (EDDF) 01.12.2020 04:50 UTC Zobrazit METAR
EDDF 010450Z 20008KT 4500 -DZ SCT003 BKN004 00/M00 Q1014 R25C/551095 R25R/511095 R18/611095 NOSIG
Freetown (GFLL) 01.12.2020 01:00 UTC Zobrazit METAR
GFLL 010100Z 29008KT 8000 -HZ SCT012 28/23 Q1011
Funafuti (NGFU) 01.12.2020 00:00 UTC Zobrazit METAR
NGFU 010000Z 09007KT 9999 SCT020 33/27 Q1008
Gaborone (FBSK) 01.12.2020 02:00 UTC Zobrazit METAR
FBSK 010200Z 32003KT 270V360 CAVOK 20/20 Q1014 NOSIG
Předchozí 1 2 3 4 5 ... 9 Další
Reklama


Další české internetové stránky (nejen) o počasí najdete v katalogu TOPlist - weby o počasí nebo vyhledejte na internetu, co jste tu na 🌞 Slunečnu ⛅ zatím nenašli:
⭐ Přidat Slunečno.cz do oblíbených | 🏠 Nastavit Slunečno.cz jako HOMEPAGE

⬆️ Posunout stránku nahoru ⬆️
Reklama